Allerte
Precipitazioni in corso 

Alghero
Plateau Rosa

Allerta Gelo (░C)  

Nessuna

Allerta Vento (km/h)  

Lampedusa
40.7/N

Scarsa VisibilitÓ (m) 

Plateau Rosa
100

Allerta Caldo (░C)  

Nessuna

Allerta Afa (░C-UR)  

Nessuna

Dati e Grafici Climatici 3-7 gg
L'OMTeA propone un elaborazione dei più importanti parametri meteorologici rilevati dalle stazioni che hanno aderito al progetto di monitoraggio. In questa sezione è possibile consultare i dati provenienti dalle centraline, interpretati attraverso output testuale e grafico.
Se vuoi aderire alla rete OMTeA vai alla pagina Info e leggi requisiti e vantaggi.

Stazione di Cefal¨ - www.meteocefalu.altervista.org

Valori rilevati il 20/01/2018 alle ore 19:59

Temperatura atmosferica: 12.2 °C
Pressione atmosferica: 1012.1 mbar
Umidità relativa: 74 %
Intensità e direzione vento: 4.2 Km/h da S

Altitudine: 20 metri s.l.m.
Latitudine: 38.02° N
Longitudine: 14.01° E



Entra nella rete OMTeA!. Potrai liberamente usare sul tuo sito questi grafici; info alla pagina Istruzioni.

Ultime 50 rilevazioni
Orario Temp
°C
Rugiada
°C
Prec.
mm
Press.
mbar
Umidità
%
Int. vento
km/h
Dir.
vento
19:59 - 20/01 12.2 7.7 0 1012.10 74 4.2 S
19:45 - 20/01 12.2 7.7 0 1012.10 74 5.0 S
19:29 - 20/01 12.3 7.8 0 1012.00 74 4.8 SSO
19:15 - 20/01 12.4 7.9 0 1012.10 74 7.3 SO
18:59 - 20/01 12.4 7.9 0 1012.00 74 4.3 S
18:45 - 20/01 12.4 7.7 0 1012.20 73 8.1 SSO
18:29 - 20/01 12.4 7.7 0 1012.20 73 2.8 SSO
18:15 - 20/01 12.3 7.6 0 1012.10 73 6.7 SSE
17:59 - 20/01 12.5 7.6 0 1011.90 72 5.1 SO
17:45 - 20/01 12.6 7.5 0 1012.00 71 4.8 SO
17:29 - 20/01 12.5 7.2 0 1011.60 70 6.4 SO
17:14 - 20/01 12.5 7.0 0 1011.30 69 4.0 SSO
16:59 - 20/01 12.4 6.9 0 1011.40 69 6.1 S
16:45 - 20/01 12.6 6.8 0 1011.40 68 7.9 S
16:29 - 20/01 13.1 7.3 0 1011.50 68 3.0 O
16:15 - 20/01 13.3 7.3 0 1011.40 67 6.2 NNO
16:00 - 20/01 13.5 7.5 0 1011.50 67 6.3 SSE
15:45 - 20/01 13.9 7.4 0 1011.50 65 2.3 S
15:30 - 20/01 13.8 7.6 0 1011.30 66 4.3 SSO
15:15 - 20/01 13.9 7.4 0 1011.40 65 4.5 SO
15:00 - 20/01 14.4 7.4 0 1011.20 63 5.4 ONO
14:45 - 20/01 13.9 7.2 0 1011.30 64 4.6 O
14:30 - 20/01 14.1 7.4 0 1011.20 64 5.2 O
14:15 - 20/01 13.8 7.6 0 1011.10 66 3.9 SO
14:00 - 20/01 13.9 8.1 0 1011.30 68 7.3 NNE
13:45 - 20/01 14.4 8.1 0 1011.30 66 6.3 O
13:30 - 20/01 14.5 7.8 0 1011.30 64 3.8 OSO
13:15 - 20/01 14.6 7.4 0 1011.50 62 2.5 O
13:00 - 20/01 14.9 7.2 0 1011.30 60 2.2 O
12:45 - 20/01 15.1 7.4 0 1011.50 60 1.7 OSO
12:30 - 20/01 15.3 8.1 0 1011.50 62 2.5 OSO
12:15 - 20/01 14.9 7.9 0 1011.70 63 2.3 O
12:00 - 20/01 14.5 7.5 0 1011.80 63 5.0 SO
11:44 - 20/01 14.4 7.2 0 1011.90 62 2.2 NO
11:29 - 20/01 14.1 7.2 0 1011.80 63 1.6 S
11:14 - 20/01 14.3 7.1 0 1011.90 62 0 --
10:59 - 20/01 14.1 7.2 0 1012.00 63 0 --
10:44 - 20/01 13.9 7.0 0 1011.90 63 1.1 SO
10:29 - 20/01 13.8 6.9 0 1011.90 63 1.4 S
10:14 - 20/01 14.1 7.2 0 1012.10 63 0 --
09:59 - 20/01 13.8 6.6 0 1012.10 62 1.6 SSO
09:44 - 20/01 13.8 6.6 0 1012.00 62 0 --
09:29 - 20/01 13.1 6.2 0 1012.00 63 3.3 S
09:14 - 20/01 13.0 5.9 0 1012.10 62 0 --
08:59 - 20/01 12.9 6.0 0 1011.90 63 1.5 SSO
08:44 - 20/01 12.7 5.8 0 1011.90 63 2.5 S
00:21 - 20/01 11.3 5.6 0 1011.90 68 0.8 SE
00:14 - 20/01 11.4 5.9 0 1011.90 69 2.6 SSE
23:59 - 19/01 11.5 6.0 0 1011.80 69 0 --
23:44 - 19/01 11.5 6.0 0 1012.30 69 2.5 SSO


   In caso di mancato funzionamento di qualche risorsa, vi preghiamo di segnalarcelo alla pagina Contatti.
© 2018 Osservatorio Meteo OMTeA
Sito di informazione su Meteo, Tempo in atto e Clima in Italia